createdAt,value
2023-05-07T00:00:09.979Z,6.10
2023-05-07T00:05:12.074Z,5.53
2023-05-07T00:10:14.035Z,5.87
2023-05-07T00:15:15.428Z,6.07
2023-05-07T00:20:16.843Z,5.53
2023-05-07T00:25:20.059Z,6.00
2023-05-07T00:30:21.892Z,5.87
2023-05-07T00:35:23.255Z,5.77
2023-05-07T00:40:24.995Z,6.50
2023-05-07T00:45:29.933Z,6.13
2023-05-07T00:50:32.710Z,5.97
2023-05-07T00:55:35.595Z,6.67
2023-05-07T01:00:37.480Z,7.20
2023-05-07T01:05:39.002Z,7.37
2023-05-07T01:10:43.329Z,6.90
2023-05-07T01:15:44.626Z,7.20
2023-05-07T01:20:46.021Z,6.53
2023-05-07T01:25:54.753Z,7.43
2023-05-07T01:31:03.889Z,7.40
2023-05-07T01:36:07.690Z,7.43
2023-05-07T01:41:09.394Z,7.67
2023-05-07T01:46:12.322Z,7.50
2023-05-07T01:51:13.767Z,7.73
2023-05-07T01:56:15.351Z,8.53
2023-05-07T02:01:18.597Z,8.10
2023-05-07T02:06:20.361Z,7.50
2023-05-07T02:11:22.036Z,8.43
2023-05-07T02:16:24.258Z,9.23
2023-05-07T02:21:27.065Z,8.50
2023-05-07T02:26:29.360Z,8.67
2023-05-07T02:31:30.963Z,8.83
2023-05-07T02:36:32.691Z,8.30
2023-05-07T02:41:42.040Z,9.90
2023-05-07T02:46:43.214Z,8.83
2023-05-07T02:51:47.259Z,8.20
2023-05-07T02:56:54.745Z,8.60
2023-05-07T03:01:56.116Z,8.30
2023-05-07T03:06:57.903Z,9.83
2023-05-07T03:11:59.379Z,9.30
2023-05-07T03:17:00.698Z,9.80
2023-05-07T03:22:01.955Z,9.50
2023-05-07T03:27:03.746Z,9.77
2023-05-07T03:32:06.238Z,9.27
2023-05-07T03:37:08.010Z,8.80
2023-05-07T03:42:09.603Z,8.80
2023-05-07T03:47:11.161Z,9.40
2023-05-07T03:52:14.038Z,9.33
2023-05-07T03:57:15.878Z,9.93
2023-05-07T04:02:17.417Z,10.97
2023-05-07T04:07:19.320Z,9.43
2023-05-07T04:12:24.588Z,10.37
2023-05-07T04:17:26.684Z,10.17
2023-05-07T04:22:28.266Z,10.50
2023-05-07T04:27:30.196Z,10.20
2023-05-07T04:32:32.112Z,10.87
2023-05-07T04:37:33.536Z,12.37
2023-05-07T04:42:36.030Z,11.67
2023-05-07T04:47:38.988Z,10.73
2023-05-07T04:52:40.568Z,11.40
2023-05-07T04:57:42.169Z,11.67
2023-05-07T05:02:46.574Z,12.80
2023-05-07T05:07:52.011Z,13.70
2023-05-07T05:12:54.125Z,13.00
2023-05-07T05:17:57.259Z,11.77
2023-05-07T05:22:59.207Z,11.70
2023-05-07T05:28:01.636Z,10.83
2023-05-07T05:33:03.865Z,12.00
2023-05-07T05:38:05.513Z,10.77
2023-05-07T05:43:08.477Z,10.45
2023-05-07T05:48:11.975Z,11.40
2023-05-07T05:53:13.785Z,11.90
2023-05-07T05:58:15.566Z,11.57
2023-05-07T06:03:23.205Z,9.45
2023-05-07T06:08:24.743Z,9.70
2023-05-07T06:13:26.735Z,8.93
2023-05-07T06:18:28.734Z,9.68
2023-05-07T06:23:30.358Z,8.77
2023-05-07T06:28:36.016Z,8.57
2023-05-07T06:33:40.215Z,7.80
2023-05-07T06:38:42.397Z,6.60
2023-05-07T06:43:43.628Z,7.13
2023-05-07T06:49:03.474Z,8.45
2023-05-07T06:54:05.200Z,7.68
2023-05-07T06:59:08.104Z,7.25
2023-05-07T07:04:13.813Z,6.35
2023-05-07T07:09:17.910Z,4.78
2023-05-07T07:14:19.535Z,4.95
2023-05-07T07:19:25.207Z,4.70
2023-05-07T07:24:29.719Z,5.07
2023-05-07T07:29:34.448Z,4.55
2023-05-07T07:34:36.441Z,4.85
2023-05-07T07:39:38.112Z,4.35
2023-05-07T07:44:40.968Z,4.82
2023-05-07T07:49:44.900Z,4.85
2023-05-07T07:54:46.367Z,5.07
2023-05-07T07:59:47.660Z,5.28
2023-05-07T08:04:50.645Z,4.60
2023-05-07T08:09:52.904Z,4.55
2023-05-07T08:14:58.104Z,4.47
2023-05-07T08:19:59.639Z,4.05
2023-05-07T08:25:01.517Z,4.50
2023-05-07T08:30:04.366Z,4.47
2023-05-07T08:35:06.328Z,3.67
2023-05-07T08:40:10.214Z,3.40
2023-05-07T08:45:14.227Z,3.33
2023-05-07T08:50:21.113Z,3.80
2023-05-07T08:55:24.612Z,3.80
2023-05-07T09:00:26.020Z,4.88
2023-05-07T09:05:30.544Z,4.20
2023-05-07T09:10:34.024Z,3.67
2023-05-07T09:15:36.018Z,3.78
2023-05-07T09:20:38.968Z,3.90
2023-05-07T09:25:41.012Z,4.20
2023-05-07T09:30:50.548Z,4.28
2023-05-07T09:35:52.422Z,4.25
2023-05-07T09:41:08.055Z,4.25
2023-05-07T09:46:20.754Z,3.58
2023-05-07T09:51:50.945Z,4.13
2023-05-07T09:56:54.530Z,3.45
2023-05-07T10:02:01.571Z,3.90
2023-05-07T10:07:06.279Z,3.58
2023-05-07T10:12:09.510Z,3.88
2023-05-07T10:17:12.584Z,4.30
2023-05-07T10:22:17.376Z,3.63
2023-05-07T10:27:22.875Z,3.83
2023-05-07T10:32:42.980Z,3.85
2023-05-07T10:37:49.924Z,4.15
2023-05-07T10:43:02.858Z,3.33
2023-05-07T10:53:27.683Z,3.83
2023-05-07T10:58:43.716Z,4.32
2023-05-07T11:04:31.599Z,3.78
2023-05-07T11:10:04.699Z,2.95
2023-05-07T11:15:17.582Z,2.30
2023-05-07T11:20:19.895Z,2.72
2023-05-07T11:25:26.883Z,2.42
2023-05-07T11:30:35.102Z,2.10
2023-05-07T11:35:37.605Z,2.65
2023-05-07T11:40:57.159Z,2.33
2023-05-07T11:46:12.118Z,3.10
2023-05-07T11:51:18.859Z,2.80
2023-05-07T11:56:20.952Z,2.50
2023-05-07T12:01:22.318Z,2.53
2023-05-07T12:06:23.629Z,2.53
2023-05-07T12:11:26.054Z,2.28
2023-05-07T12:16:28.078Z,2.67
2023-05-07T12:21:29.948Z,1.88
2023-05-07T12:26:31.433Z,2.00
2023-05-07T12:31:33.130Z,1.63
2023-05-07T12:36:38.990Z,2.03
2023-05-07T12:41:55.274Z,1.90
2023-05-07T12:46:56.899Z,2.10
2023-05-07T12:51:58.977Z,2.20
2023-05-07T12:57:05.932Z,1.77
2023-05-07T13:02:08.754Z,1.90
2023-05-07T13:07:12.209Z,2.78
2023-05-07T13:12:13.578Z,3.45
2023-05-07T13:17:14.976Z,2.70
2023-05-07T13:22:16.780Z,2.60
2023-05-07T13:27:19.477Z,2.25
2023-05-07T13:32:20.687Z,2.03
2023-05-07T13:37:22.013Z,2.63
2023-05-07T13:42:23.689Z,2.40
2023-05-07T13:47:25.042Z,3.22
2023-05-07T13:52:26.683Z,2.00
2023-05-07T13:57:27.962Z,2.33
2023-05-07T14:02:29.539Z,2.63
2023-05-07T14:07:31.123Z,2.50
2023-05-07T14:12:33.668Z,3.60
2023-05-07T14:17:35.066Z,3.22
2023-05-07T14:22:36.547Z,3.40
2023-05-07T14:27:38.366Z,3.42
2023-05-07T14:32:39.851Z,4.15
2023-05-07T14:37:41.299Z,3.08
2023-05-07T14:42:42.740Z,3.95
2023-05-07T14:47:44.017Z,3.90
2023-05-07T14:52:45.293Z,4.35
2023-05-07T14:57:46.588Z,4.57
2023-05-07T15:02:48.003Z,4.15
2023-05-07T15:07:49.289Z,5.40
2023-05-07T15:12:50.760Z,5.28
2023-05-07T15:17:52.360Z,6.38
2023-05-07T15:22:54.060Z,6.45
2023-05-07T15:27:55.681Z,5.50
2023-05-07T15:32:57.491Z,5.90
2023-05-07T15:37:59.174Z,6.45
2023-05-07T15:43:00.736Z,6.20
2023-05-07T15:48:02.607Z,5.95
2023-05-07T15:53:04.771Z,6.07
2023-05-07T15:58:06.233Z,6.20
2023-05-07T16:03:08.104Z,7.35
2023-05-07T16:08:09.663Z,7.63
2023-05-07T16:13:10.984Z,8.23
2023-05-07T16:18:15.475Z,8.70
2023-05-07T16:23:17.445Z,9.23
2023-05-07T16:28:18.862Z,9.18
2023-05-07T16:33:20.581Z,9.18
2023-05-07T16:38:21.853Z,8.32
2023-05-07T16:43:23.277Z,7.28
2023-05-07T16:48:25.163Z,7.68
2023-05-07T16:53:26.584Z,7.43
2023-05-07T16:58:28.062Z,7.38
2023-05-07T17:03:31.405Z,7.20
2023-05-07T17:08:32.706Z,6.65
2023-05-07T17:13:33.890Z,6.18
2023-05-07T17:18:35.450Z,6.97
2023-05-07T17:23:37.533Z,6.40
2023-05-07T17:28:39.138Z,6.47
2023-05-07T17:33:40.535Z,6.45
2023-05-07T17:38:41.947Z,5.15
2023-05-07T17:43:43.454Z,6.13
2023-05-07T17:48:44.858Z,6.13
2023-05-07T17:53:46.229Z,6.38
2023-05-07T17:58:58.904Z,6.55
2023-05-07T18:04:01.740Z,7.07
2023-05-07T18:09:03.479Z,7.15
2023-05-07T18:14:05.280Z,7.28
2023-05-07T18:19:06.545Z,7.57
2023-05-07T18:24:08.480Z,8.38
2023-05-07T18:29:10.201Z,7.68
2023-05-07T18:34:13.575Z,8.23
2023-05-07T18:39:14.843Z,6.65
2023-05-07T18:44:16.428Z,6.53
2023-05-07T18:49:17.593Z,6.15
2023-05-07T18:54:18.778Z,6.43
2023-05-07T18:59:20.184Z,6.45
2023-05-07T19:04:21.804Z,6.28
2023-05-07T19:09:23.182Z,7.25
2023-05-07T19:14:24.602Z,7.10
2023-05-07T19:19:27.110Z,7.43
2023-05-07T19:24:28.677Z,7.80
2023-05-07T19:29:30.675Z,7.72
2023-05-07T19:34:32.036Z,8.07
2023-05-07T19:39:33.410Z,8.35
2023-05-07T19:44:34.619Z,8.48
2023-05-07T19:49:36.070Z,8.88
2023-05-07T19:54:37.433Z,9.52
2023-05-07T19:59:39.637Z,9.90
2023-05-07T20:04:40.919Z,8.93
2023-05-07T20:09:42.059Z,7.60
2023-05-07T20:14:43.284Z,8.15
2023-05-07T20:19:44.546Z,8.88
2023-05-07T20:24:46.324Z,7.47
2023-05-07T20:29:47.655Z,7.28
2023-05-07T20:34:48.908Z,7.63
2023-05-07T20:39:50.239Z,8.82
2023-05-07T20:44:51.809Z,8.15
2023-05-07T20:49:54.012Z,9.88
2023-05-07T20:54:55.370Z,10.45
2023-05-07T20:59:57.109Z,10.15
2023-05-07T21:04:58.584Z,9.32
2023-05-07T21:09:59.959Z,9.73
2023-05-07T21:15:01.232Z,10.82
2023-05-07T21:20:03.302Z,12.18
2023-05-07T21:25:05.143Z,13.68
2023-05-07T21:30:07.283Z,13.18
2023-05-07T21:35:09.071Z,14.15
2023-05-07T21:40:11.133Z,15.13
2023-05-07T21:45:12.960Z,15.45
2023-05-07T21:50:14.621Z,14.30
2023-05-07T21:55:19.910Z,14.65
2023-05-07T22:00:22.939Z,14.27
2023-05-07T22:05:24.118Z,14.38
2023-05-07T22:10:25.480Z,18.55
2023-05-07T22:15:26.851Z,17.48
2023-05-07T22:20:28.232Z,18.38
2023-05-07T22:25:33.843Z,20.58
2023-05-07T22:30:35.261Z,21.83
2023-05-07T22:35:36.799Z,21.73
2023-05-07T22:40:38.262Z,21.17
2023-05-07T22:45:39.809Z,23.60
2023-05-07T22:50:41.254Z,24.47
2023-05-07T22:55:42.445Z,22.87
2023-05-07T23:00:43.881Z,23.70
2023-05-07T23:05:45.329Z,22.77
2023-05-07T23:10:46.756Z,23.47
2023-05-07T23:15:48.996Z,25.10
2023-05-07T23:20:50.358Z,28.23
2023-05-07T23:25:52.441Z,28.98
2023-05-07T23:30:53.826Z,30.50
2023-05-07T23:36:02.721Z,31.57
2023-05-07T23:41:04.006Z,30.50
2023-05-07T23:46:05.532Z,31.50
2023-05-07T23:51:06.897Z,31.57
2023-05-07T23:56:08.234Z,31.33
